LQJL weather

Tuzla Jegin Lug Sport Airfield
Tuzla, Federacija Bosna i Hercegovina, Bosnia and Herzegovina

Public forecast

Using degrees Celsius for public forecast. Weather courtesy of forecast.io.

Closest aviation weather report (METAR) to Tuzla Jegin Lug Sport Airfield

Closest report is Tuzla International Airport, 3.6 nm (6.6 km) W. Retrieved 2020/07/16 04:30 UTC (5 minutes ago):

LQTZ 160430Z VRB01KT CAVOK 14/14 Q1014

Closest aviation forecast (TAF) to Tuzla Jegin Lug Sport Airfield

Closest forecast is Tuzla International Airport, 3.6 nm (6.6 km) W. Retrieved 2020-07-16 00:10 UTC (4 hours ago):

TAF LQTZ 152300Z 1600/1624 VRB02KT CAVOK TX28/1614Z TN09/1603Z PROB30 TEMPO 1603/1606 2000 BCFG PROB30 TEMPO 1614/1619 33010KT SHRA FEW030TCU SCT040